sensor_id;sensor_type;location;lat;lon;timestamp;P1;durP1;ratioP1;P2;durP2;ratioP2
36555;SDS011;40859;50.560;7.268;2022-08-20T00:01:01;1.17;;;0.90;;
36555;SDS011;40859;50.560;7.268;2022-08-20T00:03:35;2.03;;;1.02;;
36555;SDS011;40859;50.560;7.268;2022-08-20T00:06:08;2.22;;;1.27;;
36555;SDS011;40859;50.560;7.268;2022-08-20T00:08:40;2.33;;;1.12;;
36555;SDS011;40859;50.560;7.268;2022-08-20T00:11:09;3.75;;;1.42;;
36555;SDS011;40859;50.560;7.268;2022-08-20T00:13:44;1.37;;;1.08;;
36555;SDS011;40859;50.560;7.268;2022-08-20T00:16:22;5.47;;;1.65;;
36555;SDS011;40859;50.560;7.268;2022-08-20T00:18:51;4.18;;;1.45;;
36555;SDS011;40859;50.560;7.268;2022-08-20T00:21:18;4.55;;;1.58;;
36555;SDS011;40859;50.560;7.268;2022-08-20T00:23:46;1.02;;;0.93;;
36555;SDS011;40859;50.560;7.268;2022-08-20T00:26:13;1.35;;;0.90;;
36555;SDS011;40859;50.560;7.268;2022-08-20T00:28:40;1.87;;;1.23;;
36555;SDS011;40859;50.560;7.268;2022-08-20T00:31:07;1.98;;;1.50;;
36555;SDS011;40859;50.560;7.268;2022-08-20T00:33:34;3.17;;;1.33;;
36555;SDS011;40859;50.560;7.268;2022-08-20T00:36:02;1.85;;;1.05;;
36555;SDS011;40859;50.560;7.268;2022-08-20T00:38:42;1.92;;;1.30;;
36555;SDS011;40859;50.560;7.268;2022-08-20T00:41:11;4.43;;;1.10;;
36555;SDS011;40859;50.560;7.268;2022-08-20T00:43:45;2.05;;;1.30;;
36555;SDS011;40859;50.560;7.268;2022-08-20T00:48:47;2.15;;;1.33;;
36555;SDS011;40859;50.560;7.268;2022-08-20T00:51:26;5.40;;;1.87;;
36555;SDS011;40859;50.560;7.268;2022-08-20T00:54:16;1.20;;;1.10;;
36555;SDS011;40859;50.560;7.268;2022-08-20T00:57:26;3.62;;;0.98;;
36555;SDS011;40859;50.560;7.268;2022-08-20T01:00:11;1.87;;;1.40;;
36555;SDS011;40859;50.560;7.268;2022-08-20T01:02:40;6.15;;;1.30;;
36555;SDS011;40859;50.560;7.268;2022-08-20T01:05:07;4.22;;;1.30;;
36555;SDS011;40859;50.560;7.268;2022-08-20T01:07:36;5.47;;;1.45;;
36555;SDS011;40859;50.560;7.268;2022-08-20T01:10:17;2.72;;;1.58;;
36555;SDS011;40859;50.560;7.268;2022-08-20T01:12:57;4.30;;;1.40;;
36555;SDS011;40859;50.560;7.268;2022-08-20T01:15:23;7.15;;;2.15;;
36555;SDS011;40859;50.560;7.268;2022-08-20T01:17:56;8.32;;;1.27;;
36555;SDS011;40859;50.560;7.268;2022-08-20T01:20:25;6.12;;;1.98;;
36555;SDS011;40859;50.560;7.268;2022-08-20T01:28:46;2.65;;;1.10;;
36555;SDS011;40859;50.560;7.268;2022-08-20T01:31:23;3.78;;;1.20;;
36555;SDS011;40859;50.560;7.268;2022-08-20T01:34:00;2.40;;;1.58;;
36555;SDS011;40859;50.560;7.268;2022-08-20T01:36:37;1.98;;;1.10;;
36555;SDS011;40859;50.560;7.268;2022-08-20T01:39:13;2.67;;;1.55;;
36555;SDS011;40859;50.560;7.268;2022-08-20T01:41:56;1.48;;;1.37;;
36555;SDS011;40859;50.560;7.268;2022-08-20T01:44:44;5.53;;;1.37;;
36555;SDS011;40859;50.560;7.268;2022-08-20T01:47:21;1.58;;;1.30;;
36555;SDS011;40859;50.560;7.268;2022-08-20T01:49:51;3.10;;;1.48;;
36555;SDS011;40859;50.560;7.268;2022-08-20T01:52:33;1.40;;;1.30;;
36555;SDS011;40859;50.560;7.268;2022-08-20T01:55:08;5.00;;;1.60;;
36555;SDS011;40859;50.560;7.268;2022-08-20T01:57:34;6.25;;;1.12;;
36555;SDS011;40859;50.560;7.268;2022-08-20T02:00:04;4.78;;;1.40;;
36555;SDS011;40859;50.560;7.268;2022-08-20T02:02:37;1.73;;;1.17;;
36555;SDS011;40859;50.560;7.268;2022-08-20T02:05:19;2.58;;;1.33;;
36555;SDS011;40859;50.560;7.268;2022-08-20T02:07:55;1.83;;;1.30;;
36555;SDS011;40859;50.560;7.268;2022-08-20T02:10:21;1.37;;;1.15;;
36555;SDS011;40859;50.560;7.268;2022-08-20T02:12:47;1.35;;;1.25;;
36555;SDS011;40859;50.560;7.268;2022-08-20T02:15:13;6.22;;;1.50;;
36555;SDS011;40859;50.560;7.268;2022-08-20T02:17:40;5.97;;;1.27;;
36555;SDS011;40859;50.560;7.268;2022-08-20T02:20:09;3.60;;;1.17;;
36555;SDS011;40859;50.560;7.268;2022-08-20T02:22:50;2.22;;;0.95;;
36555;SDS011;40859;50.560;7.268;2022-08-20T02:25:20;3.25;;;1.02;;
36555;SDS011;40859;50.560;7.268;2022-08-20T02:27:49;1.83;;;1.20;;
36555;SDS011;40859;50.560;7.268;2022-08-20T02:30:19;3.55;;;1.37;;
36555;SDS011;40859;50.560;7.268;2022-08-20T02:32:48;3.30;;;1.27;;
36555;SDS011;40859;50.560;7.268;2022-08-20T02:35:15;1.52;;;1.00;;
36555;SDS011;40859;50.560;7.268;2022-08-20T02:37:43;2.47;;;1.20;;
36555;SDS011;40859;50.560;7.268;2022-08-20T02:40:15;1.35;;;1.25;;
36555;SDS011;40859;50.560;7.268;2022-08-20T02:42:51;1.75;;;0.95;;
36555;SDS011;40859;50.560;7.268;2022-08-20T02:45:18;3.22;;;1.10;;
36555;SDS011;40859;50.560;7.268;2022-08-20T02:47:46;9.45;;;0.98;;
36555;SDS011;40859;50.560;7.268;2022-08-20T02:50:15;1.42;;;0.98;;
36555;SDS011;40859;50.560;7.268;2022-08-20T02:52:43;0.77;;;0.70;;
36555;SDS011;40859;50.560;7.268;2022-08-20T02:55:09;1.45;;;1.17;;
36555;SDS011;40859;50.560;7.268;2022-08-20T02:57:37;2.00;;;1.23;;
36555;SDS011;40859;50.560;7.268;2022-08-20T03:00:24;1.67;;;0.90;;
36555;SDS011;40859;50.560;7.268;2022-08-20T03:03:52;1.35;;;1.08;;
36555;SDS011;40859;50.560;7.268;2022-08-20T03:06:23;1.67;;;1.00;;
36555;SDS011;40859;50.560;7.268;2022-08-20T03:08:50;1.70;;;1.20;;
36555;SDS011;40859;50.560;7.268;2022-08-20T03:11:16;1.20;;;0.80;;
36555;SDS011;40859;50.560;7.268;2022-08-20T03:13:45;1.67;;;1.08;;
36555;SDS011;40859;50.560;7.268;2022-08-20T03:16:11;3.20;;;1.23;;
36555;SDS011;40859;50.560;7.268;2022-08-20T03:18:38;1.30;;;0.98;;
36555;SDS011;40859;50.560;7.268;2022-08-20T03:21:06;2.65;;;1.10;;
36555;SDS011;40859;50.560;7.268;2022-08-20T03:23:33;1.08;;;1.00;;
36555;SDS011;40859;50.560;7.268;2022-08-20T03:26:01;1.48;;;0.95;;
36555;SDS011;40859;50.560;7.268;2022-08-20T03:28:30;3.85;;;1.00;;
36555;SDS011;40859;50.560;7.268;2022-08-20T03:30:57;2.08;;;1.42;;
36555;SDS011;40859;50.560;7.268;2022-08-20T03:33:24;1.65;;;1.10;;
36555;SDS011;40859;50.560;7.268;2022-08-20T03:35:51;2.12;;;1.00;;
36555;SDS011;40859;50.560;7.268;2022-08-20T03:38:20;1.62;;;0.95;;
36555;SDS011;40859;50.560;7.268;2022-08-20T03:40:47;1.30;;;0.98;;
36555;SDS011;40859;50.560;7.268;2022-08-20T03:43:14;1.35;;;1.00;;
36555;SDS011;40859;50.560;7.268;2022-08-20T03:45:41;5.22;;;1.48;;
36555;SDS011;40859;50.560;7.268;2022-08-20T03:48:09;1.10;;;1.05;;
36555;SDS011;40859;50.560;7.268;2022-08-20T03:50:38;1.10;;;0.90;;
36555;SDS011;40859;50.560;7.268;2022-08-20T03:53:06;7.70;;;1.37;;
36555;SDS011;40859;50.560;7.268;2022-08-20T03:55:33;1.52;;;1.02;;
36555;SDS011;40859;50.560;7.268;2022-08-20T03:58:01;1.10;;;1.00;;
36555;SDS011;40859;50.560;7.268;2022-08-20T04:00:40;2.87;;;1.67;;
36555;SDS011;40859;50.560;7.268;2022-08-20T04:03:09;0.60;;;0.60;;
36555;SDS011;40859;50.560;7.268;2022-08-20T04:05:36;1.33;;;0.90;;
36555;SDS011;40859;50.560;7.268;2022-08-20T04:08:12;3.53;;;1.05;;
36555;SDS011;40859;50.560;7.268;2022-08-20T04:10:51;0.90;;;0.90;;
36555;SDS011;40859;50.560;7.268;2022-08-20T04:13:19;5.07;;;1.17;;
36555;SDS011;40859;50.560;7.268;2022-08-20T04:15:46;2.60;;;0.90;;
36555;SDS011;40859;50.560;7.268;2022-08-20T04:18:13;3.45;;;0.98;;
36555;SDS011;40859;50.560;7.268;2022-08-20T04:20:44;1.73;;;1.02;;
36555;SDS011;40859;50.560;7.268;2022-08-20T04:23:11;1.05;;;0.90;;
36555;SDS011;40859;50.560;7.268;2022-08-20T04:25:39;1.30;;;1.00;;
36555;SDS011;40859;50.560;7.268;2022-08-20T04:28:06;1.65;;;1.05;;
36555;SDS011;40859;50.560;7.268;2022-08-20T04:30:36;1.50;;;1.00;;
36555;SDS011;40859;50.560;7.268;2022-08-20T04:33:03;2.17;;;0.70;;
36555;SDS011;40859;50.560;7.268;2022-08-20T04:35:29;1.12;;;0.75;;
36555;SDS011;40859;50.560;7.268;2022-08-20T04:40:40;2.25;;;1.12;;
36555;SDS011;40859;50.560;7.268;2022-08-20T04:43:25;2.60;;;0.85;;
36555;SDS011;40859;50.560;7.268;2022-08-20T04:45:54;1.25;;;0.93;;
36555;SDS011;40859;50.560;7.268;2022-08-20T04:48:21;0.82;;;0.82;;
36555;SDS011;40859;50.560;7.268;2022-08-20T04:50:50;1.70;;;0.80;;
36555;SDS011;40859;50.560;7.268;2022-08-20T04:53:19;1.20;;;1.10;;
36555;SDS011;40859;50.560;7.268;2022-08-20T04:55:46;1.37;;;0.77;;
36555;SDS011;40859;50.560;7.268;2022-08-20T04:58:15;1.42;;;0.73;;
36555;SDS011;40859;50.560;7.268;2022-08-20T05:00:47;1.12;;;0.70;;
36555;SDS011;40859;50.560;7.268;2022-08-20T05:03:16;2.33;;;1.00;;
36555;SDS011;40859;50.560;7.268;2022-08-20T05:05:43;2.58;;;1.00;;
36555;SDS011;40859;50.560;7.268;2022-08-20T05:08:11;0.80;;;0.80;;
36555;SDS011;40859;50.560;7.268;2022-08-20T05:10:38;1.87;;;1.10;;
36555;SDS011;40859;50.560;7.268;2022-08-20T05:13:05;3.53;;;1.25;;
36555;SDS011;40859;50.560;7.268;2022-08-20T05:15:32;2.30;;;0.80;;
36555;SDS011;40859;50.560;7.268;2022-08-20T05:17:59;2.50;;;1.00;;
36555;SDS011;40859;50.560;7.268;2022-08-20T05:20:30;1.98;;;0.85;;
36555;SDS011;40859;50.560;7.268;2022-08-20T05:23:00;2.15;;;1.00;;
36555;SDS011;40859;50.560;7.268;2022-08-20T05:25:27;1.50;;;1.00;;
36555;SDS011;40859;50.560;7.268;2022-08-20T05:27:58;3.60;;;0.90;;
36555;SDS011;40859;50.560;7.268;2022-08-20T05:30:36;1.48;;;1.00;;
36555;SDS011;40859;50.560;7.268;2022-08-20T05:33:07;4.75;;;1.10;;
36555;SDS011;40859;50.560;7.268;2022-08-20T05:35:35;2.60;;;0.77;;
36555;SDS011;40859;50.560;7.268;2022-08-20T05:38:06;2.45;;;0.80;;
36555;SDS011;40859;50.560;7.268;2022-08-20T05:40:36;1.95;;;0.88;;
36555;SDS011;40859;50.560;7.268;2022-08-20T05:43:03;1.58;;;0.98;;
36555;SDS011;40859;50.560;7.268;2022-08-20T05:45:30;1.20;;;1.02;;
36555;SDS011;40859;50.560;7.268;2022-08-20T05:47:58;1.55;;;1.02;;
36555;SDS011;40859;50.560;7.268;2022-08-20T05:50:28;1.50;;;0.80;;
36555;SDS011;40859;50.560;7.268;2022-08-20T05:52:54;5.18;;;1.00;;
36555;SDS011;40859;50.560;7.268;2022-08-20T05:55:20;1.12;;;0.90;;
36555;SDS011;40859;50.560;7.268;2022-08-20T05:57:48;0.95;;;0.82;;
36555;SDS011;40859;50.560;7.268;2022-08-20T06:00:20;1.10;;;1.00;;
36555;SDS011;40859;50.560;7.268;2022-08-20T06:02:46;1.52;;;0.52;;
36555;SDS011;40859;50.560;7.268;2022-08-20T06:07:56;6.40;;;1.15;;
36555;SDS011;40859;50.560;7.268;2022-08-20T06:10:22;4.37;;;1.05;;
36555;SDS011;40859;50.560;7.268;2022-08-20T06:12:48;1.40;;;1.02;;
36555;SDS011;40859;50.560;7.268;2022-08-20T06:15:14;2.28;;;0.90;;
36555;SDS011;40859;50.560;7.268;2022-08-20T06:17:39;4.78;;;0.80;;
36555;SDS011;40859;50.560;7.268;2022-08-20T06:20:06;1.87;;;0.90;;
36555;SDS011;40859;50.560;7.268;2022-08-20T06:22:33;1.05;;;0.65;;
36555;SDS011;40859;50.560;7.268;2022-08-20T06:25:00;2.55;;;0.88;;
36555;SDS011;40859;50.560;7.268;2022-08-20T06:27:27;3.53;;;0.80;;
36555;SDS011;40859;50.560;7.268;2022-08-20T06:29:53;2.87;;;1.05;;
36555;SDS011;40859;50.560;7.268;2022-08-20T06:32:19;2.92;;;1.00;;
36555;SDS011;40859;50.560;7.268;2022-08-20T06:34:46;2.80;;;0.85;;
36555;SDS011;40859;50.560;7.268;2022-08-20T06:37:19;2.58;;;0.80;;
36555;SDS011;40859;50.560;7.268;2022-08-20T06:39:47;5.30;;;1.40;;
36555;SDS011;40859;50.560;7.268;2022-08-20T06:42:14;11.20;;;0.90;;
36555;SDS011;40859;50.560;7.268;2022-08-20T06:44:40;1.60;;;0.80;;
36555;SDS011;40859;50.560;7.268;2022-08-20T06:47:06;5.40;;;0.77;;
36555;SDS011;40859;50.560;7.268;2022-08-20T06:49:35;1.90;;;1.27;;
36555;SDS011;40859;50.560;7.268;2022-08-20T06:52:04;2.80;;;1.10;;
36555;SDS011;40859;50.560;7.268;2022-08-20T06:54:30;5.60;;;0.82;;
36555;SDS011;40859;50.560;7.268;2022-08-20T06:56:58;12.77;;;1.10;;
36555;SDS011;40859;50.560;7.268;2022-08-20T06:59:25;7.68;;;1.92;;
36555;SDS011;40859;50.560;7.268;2022-08-20T07:01:51;2.78;;;1.12;;
36555;SDS011;40859;50.560;7.268;2022-08-20T07:04:21;6.55;;;1.25;;
36555;SDS011;40859;50.560;7.268;2022-08-20T07:06:49;8.52;;;1.62;;
36555;SDS011;40859;50.560;7.268;2022-08-20T07:09:17;7.35;;;1.62;;
36555;SDS011;40859;50.560;7.268;2022-08-20T07:11:44;7.47;;;1.92;;
36555;SDS011;40859;50.560;7.268;2022-08-20T07:14:10;2.60;;;1.30;;
36555;SDS011;40859;50.560;7.268;2022-08-20T07:16:36;6.30;;;1.62;;
36555;SDS011;40859;50.560;7.268;2022-08-20T07:19:03;5.87;;;1.35;;
36555;SDS011;40859;50.560;7.268;2022-08-20T07:21:29;6.25;;;1.87;;
36555;SDS011;40859;50.560;7.268;2022-08-20T07:23:54;12.27;;;3.15;;
36555;SDS011;40859;50.560;7.268;2022-08-20T07:26:21;5.78;;;3.22;;
36555;SDS011;40859;50.560;7.268;2022-08-20T07:28:47;5.60;;;2.50;;
36555;SDS011;40859;50.560;7.268;2022-08-20T07:31:13;11.00;;;2.12;;
36555;SDS011;40859;50.560;7.268;2022-08-20T07:33:57;8.57;;;2.30;;
36555;SDS011;40859;50.560;7.268;2022-08-20T07:36:24;12.77;;;1.58;;
36555;SDS011;40859;50.560;7.268;2022-08-20T07:38:50;9.52;;;2.28;;
36555;SDS011;40859;50.560;7.268;2022-08-20T07:41:17;9.88;;;1.75;;
36555;SDS011;40859;50.560;7.268;2022-08-20T07:43:44;10.38;;;2.22;;
36555;SDS011;40859;50.560;7.268;2022-08-20T07:46:11;13.15;;;2.87;;
36555;SDS011;40859;50.560;7.268;2022-08-20T07:48:41;13.55;;;2.33;;
36555;SDS011;40859;50.560;7.268;2022-08-20T07:51:14;8.88;;;1.75;;
36555;SDS011;40859;50.560;7.268;2022-08-20T07:53:42;6.93;;;1.70;;
36555;SDS011;40859;50.560;7.268;2022-08-20T07:56:10;13.95;;;1.85;;
36555;SDS011;40859;50.560;7.268;2022-08-20T07:58:42;12.90;;;1.62;;
36555;SDS011;40859;50.560;7.268;2022-08-20T08:01:14;12.13;;;2.05;;
36555;SDS011;40859;50.560;7.268;2022-08-20T08:03:52;10.85;;;2.60;;
36555;SDS011;40859;50.560;7.268;2022-08-20T08:06:19;11.00;;;1.80;;
36555;SDS011;40859;50.560;7.268;2022-08-20T08:08:46;5.60;;;1.80;;
36555;SDS011;40859;50.560;7.268;2022-08-20T08:11:14;6.62;;;1.45;;
36555;SDS011;40859;50.560;7.268;2022-08-20T08:13:41;5.35;;;1.67;;
36555;SDS011;40859;50.560;7.268;2022-08-20T08:16:07;5.57;;;1.35;;
36555;SDS011;40859;50.560;7.268;2022-08-20T08:18:37;3.60;;;1.50;;
36555;SDS011;40859;50.560;7.268;2022-08-20T08:21:12;15.85;;;2.15;;
36555;SDS011;40859;50.560;7.268;2022-08-20T08:23:40;2.33;;;1.50;;
36555;SDS011;40859;50.560;7.268;2022-08-20T08:26:13;4.55;;;1.42;;
36555;SDS011;40859;50.560;7.268;2022-08-20T08:28:40;2.95;;;1.40;;
36555;SDS011;40859;50.560;7.268;2022-08-20T08:31:10;14.77;;;1.83;;
36555;SDS011;40859;50.560;7.268;2022-08-20T08:33:36;5.53;;;1.75;;
36555;SDS011;40859;50.560;7.268;2022-08-20T08:36:06;8.45;;;2.22;;
36555;SDS011;40859;50.560;7.268;2022-08-20T08:38:37;3.70;;;1.45;;
36555;SDS011;40859;50.560;7.268;2022-08-20T08:41:21;13.02;;;2.20;;
36555;SDS011;40859;50.560;7.268;2022-08-20T08:43:55;5.72;;;1.20;;
36555;SDS011;40859;50.560;7.268;2022-08-20T08:46:43;3.22;;;1.37;;
36555;SDS011;40859;50.560;7.268;2022-08-20T08:49:13;1.05;;;0.95;;
36555;SDS011;40859;50.560;7.268;2022-08-20T08:51:49;3.87;;;1.50;;
36555;SDS011;40859;50.560;7.268;2022-08-20T08:54:22;3.40;;;1.10;;
36555;SDS011;40859;50.560;7.268;2022-08-20T08:56:51;2.08;;;1.62;;
36555;SDS011;40859;50.560;7.268;2022-08-20T08:59:18;1.83;;;1.15;;
36555;SDS011;40859;50.560;7.268;2022-08-20T09:01:46;1.50;;;1.12;;
36555;SDS011;40859;50.560;7.268;2022-08-20T09:04:33;3.40;;;1.10;;
36555;SDS011;40859;50.560;7.268;2022-08-20T09:07:03;2.62;;;1.20;;
36555;SDS011;40859;50.560;7.268;2022-08-20T09:09:35;1.58;;;1.10;;
36555;SDS011;40859;50.560;7.268;2022-08-20T09:12:07;2.35;;;1.17;;
36555;SDS011;40859;50.560;7.268;2022-08-20T09:14:36;4.93;;;1.35;;
36555;SDS011;40859;50.560;7.268;2022-08-20T09:17:02;1.40;;;1.08;;
36555;SDS011;40859;50.560;7.268;2022-08-20T09:19:28;2.97;;;1.23;;
36555;SDS011;40859;50.560;7.268;2022-08-20T09:21:55;4.62;;;1.40;;
36555;SDS011;40859;50.560;7.268;2022-08-20T09:24:20;2.10;;;1.15;;
36555;SDS011;40859;50.560;7.268;2022-08-20T09:26:47;3.28;;;0.90;;
36555;SDS011;40859;50.560;7.268;2022-08-20T09:29:13;1.48;;;1.20;;
36555;SDS011;40859;50.560;7.268;2022-08-20T09:31:39;3.78;;;1.20;;
36555;SDS011;40859;50.560;7.268;2022-08-20T09:34:05;2.83;;;1.23;;
36555;SDS011;40859;50.560;7.268;2022-08-20T09:36:30;5.35;;;1.70;;
36555;SDS011;40859;50.560;7.268;2022-08-20T09:38:57;2.03;;;1.27;;
36555;SDS011;40859;50.560;7.268;2022-08-20T09:41:23;2.87;;;1.17;;
36555;SDS011;40859;50.560;7.268;2022-08-20T09:43:49;3.50;;;1.65;;
36555;SDS011;40859;50.560;7.268;2022-08-20T09:46:15;6.62;;;1.83;;
36555;SDS011;40859;50.560;7.268;2022-08-20T09:48:40;2.50;;;1.58;;
36555;SDS011;40859;50.560;7.268;2022-08-20T09:51:06;6.30;;;1.52;;
36555;SDS011;40859;50.560;7.268;2022-08-20T09:53:32;6.22;;;1.45;;
36555;SDS011;40859;50.560;7.268;2022-08-20T09:55:59;5.78;;;1.65;;
36555;SDS011;40859;50.560;7.268;2022-08-20T09:58:35;5.57;;;1.70;;
36555;SDS011;40859;50.560;7.268;2022-08-20T10:01:09;2.67;;;1.50;;
36555;SDS011;40859;50.560;7.268;2022-08-20T10:03:39;6.10;;;1.73;;
36555;SDS011;40859;50.560;7.268;2022-08-20T10:06:06;7.22;;;1.55;;
36555;SDS011;40859;50.560;7.268;2022-08-20T10:08:32;5.00;;;1.65;;
36555;SDS011;40859;50.560;7.268;2022-08-20T10:10:57;9.90;;;1.40;;
36555;SDS011;40859;50.560;7.268;2022-08-20T10:13:23;6.57;;;1.42;;
36555;SDS011;40859;50.560;7.268;2022-08-20T10:15:49;6.22;;;1.25;;
36555;SDS011;40859;50.560;7.268;2022-08-20T10:18:16;2.28;;;1.02;;
36555;SDS011;40859;50.560;7.268;2022-08-20T10:20:42;10.40;;;1.10;;
36555;SDS011;40859;50.560;7.268;2022-08-20T10:23:08;7.28;;;1.50;;
36555;SDS011;40859;50.560;7.268;2022-08-20T10:25:35;11.02;;;1.73;;
36555;SDS011;40859;50.560;7.268;2022-08-20T10:28:01;4.32;;;1.30;;
36555;SDS011;40859;50.560;7.268;2022-08-20T10:30:27;12.98;;;1.60;;
36555;SDS011;40859;50.560;7.268;2022-08-20T10:32:53;9.48;;;1.48;;
36555;SDS011;40859;50.560;7.268;2022-08-20T10:35:19;8.35;;;1.12;;
36555;SDS011;40859;50.560;7.268;2022-08-20T10:37:45;4.70;;;1.42;;
36555;SDS011;40859;50.560;7.268;2022-08-20T10:40:11;4.85;;;1.75;;
36555;SDS011;40859;50.560;7.268;2022-08-20T10:42:40;6.05;;;1.27;;
36555;SDS011;40859;50.560;7.268;2022-08-20T10:45:10;26.50;;;1.90;;
36555;SDS011;40859;50.560;7.268;2022-08-20T10:47:37;7.22;;;1.62;;
36555;SDS011;40859;50.560;7.268;2022-08-20T10:50:04;6.45;;;1.12;;
36555;SDS011;40859;50.560;7.268;2022-08-20T10:52:32;8.40;;;1.45;;
36555;SDS011;40859;50.560;7.268;2022-08-20T10:54:58;9.60;;;1.95;;
36555;SDS011;40859;50.560;7.268;2022-08-20T10:57:25;13.50;;;1.17;;
36555;SDS011;40859;50.560;7.268;2022-08-20T10:59:54;15.52;;;1.73;;
36555;SDS011;40859;50.560;7.268;2022-08-20T11:02:22;5.55;;;2.08;;
36555;SDS011;40859;50.560;7.268;2022-08-20T11:04:50;17.92;;;2.20;;
36555;SDS011;40859;50.560;7.268;2022-08-20T11:07:23;7.37;;;1.40;;
36555;SDS011;40859;50.560;7.268;2022-08-20T11:09:57;3.60;;;1.50;;
36555;SDS011;40859;50.560;7.268;2022-08-20T11:12:23;5.40;;;1.48;;
36555;SDS011;40859;50.560;7.268;2022-08-20T11:14:50;7.65;;;1.77;;
36555;SDS011;40859;50.560;7.268;2022-08-20T11:17:24;10.27;;;1.98;;
36555;SDS011;40859;50.560;7.268;2022-08-20T11:19:52;6.43;;;1.48;;
36555;SDS011;40859;50.560;7.268;2022-08-20T11:22:18;5.60;;;2.20;;
36555;SDS011;40859;50.560;7.268;2022-08-20T11:24:44;6.12;;;1.70;;
36555;SDS011;40859;50.560;7.268;2022-08-20T11:27:13;3.12;;;1.80;;
36555;SDS011;40859;50.560;7.268;2022-08-20T23:42:14;3.28;;;1.55;;
36555;SDS011;40859;50.560;7.268;2022-08-20T23:44:41;4.55;;;2.08;;
36555;SDS011;40859;50.560;7.268;2022-08-20T23:47:07;3.33;;;1.70;;
36555;SDS011;40859;50.560;7.268;2022-08-20T23:49:42;2.75;;;1.83;;
36555;SDS011;40859;50.560;7.268;2022-08-20T23:52:08;3.87;;;1.62;;
36555;SDS011;40859;50.560;7.268;2022-08-20T23:54:33;2.40;;;1.60;;
36555;SDS011;40859;50.560;7.268;2022-08-20T23:57:00;3.20;;;1.77;;
36555;SDS011;40859;50.560;7.268;2022-08-20T23:59:25;2.97;;;2.03;;
